Time;durP1;ratioP1;P1;durP2;ratioP2;P2;SDS_P1;SDS_P2;PMS_P1;PMS_P2;Temp;Humidity;BMP_temperature;BMP_pressure;BME280_temperature;BME280_humidity;BME280_pressure;Samples;Min_cycle;Max_cycle;Signal;HPM_P1;HPM_P2
2021/11/17 02:26:41;;;;;;;27.92;13.15;;;5.30;99.90;;;;;;5083746;28;20067;-58
2021/11/17 02:29:23;;;;;;;26.92;12.48;;;5.30;99.90;;;;;;5085432;28;20071;-57
2021/11/17 02:31:55;;;;;;;22.95;11.30;;;5.30;99.90;;;;;;5083748;28;20054;-58
2021/11/17 02:34:56;;;;;;;28.13;13.70;;;5.30;99.90;;;;;;5081166;28;20033;-60
2021/11/17 02:37:44;;;;;;;25.10;11.95;;;5.30;99.90;;;;;;5068696;28;20045;-57
2021/11/17 02:40:41;;;;;;;25.08;12.35;;;5.20;99.90;;;;;;5077498;28;20024;-57
2021/11/17 02:43:29;;;;;;;20.98;11.82;;;5.20;99.90;;;;;;5086971;28;20040;-60
2021/11/17 02:46:16;;;;;;;29.77;12.35;;;5.20;99.90;;;;;;5082164;28;20452;-55
2021/11/17 02:48:51;;;;;;;27.20;12.50;;;5.20;99.90;;;;;;5089108;28;20032;-55
2021/11/17 02:51:34;;;;;;;29.25;11.50;;;5.20;99.90;;;;;;5086892;28;20039;-57
2021/11/17 02:54:27;;;;;;;25.07;12.73;;;5.30;99.90;;;;;;5077955;28;20111;-53
2021/11/17 02:57:24;;;;;;;26.95;13.35;;;5.30;99.90;;;;;;5084660;28;20306;-56
2021/11/17 03:00:20;;;;;;;28.55;12.95;;;5.30;99.90;;;;;;5092343;28;20024;-55
2021/11/17 03:03:06;;;;;;;29.13;13.55;;;5.30;99.90;;;;;;5066830;28;20051;-58
2021/11/17 03:05:40;;;;;;;23.67;11.38;;;5.30;99.90;;;;;;5079659;28;20071;-57
2021/11/17 03:08:27;;;;;;;27.52;12.63;;;5.30;99.90;;;;;;5084510;28;20036;-56
2021/11/17 03:11:05;;;;;;;29.45;12.10;;;5.30;99.90;;;;;;5083757;28;20034;-59
2021/11/17 03:13:42;;;;;;;27.13;12.05;;;5.30;99.90;;;;;;5086452;28;20399;-57
2021/11/17 03:16:39;;;;;;;23.70;11.52;;;5.30;99.90;;;;;;5093013;28;20500;-53
2021/11/17 03:19:23;;;;;;;23.88;12.27;;;5.30;99.90;;;;;;5083577;28;20440;-59
2021/11/17 03:22:01;;;;;;;25.42;13.52;;;5.30;99.90;;;;;;5081197;28;20024;-57
2021/11/17 03:24:47;;;;;;;26.17;12.38;;;5.30;99.90;;;;;;5075644;28;20032;-58
2021/11/17 03:27:26;;;;;;;24.42;12.48;;;5.30;99.90;;;;;;5084168;28;20518;-58
2021/11/17 03:30:00;;;;;;;26.33;12.32;;;5.30;99.90;;;;;;5083983;28;20047;-58
2021/11/17 03:32:51;;;;;;;23.42;12.32;;;5.30;99.90;;;;;;5084284;28;20032;-57
2021/11/17 03:35:23;;;;;;;23.70;12.93;;;5.30;99.90;;;;;;5075854;28;20032;-57
2021/11/17 03:38:26;;;;;;;29.48;13.70;;;5.20;99.90;;;;;;5058985;28;20396;-58
2021/11/17 03:41:00;;;;;;;31.92;13.27;;;5.30;99.90;;;;;;5078300;28;20035;-59
2021/11/17 03:43:47;;;;;;;28.05;13.23;;;5.20;99.90;;;;;;5078554;28;20906;-57
2021/11/17 03:46:22;;;;;;;26.58;12.52;;;5.20;99.90;;;;;;5087597;28;20846;-57
2021/11/17 03:48:50;;;;;;;23.60;11.68;;;5.20;99.90;;;;;;5081403;28;20046;-55
2021/11/17 03:51:34;;;;;;;32.42;14.45;;;5.20;99.90;;;;;;5089928;28;20111;-55
2021/11/17 03:54:06;;;;;;;33.92;13.40;;;5.20;99.90;;;;;;5083835;28;20032;-56
2021/11/17 03:56:50;;;;;;;28.45;14.05;;;5.20;99.90;;;;;;5082786;28;20109;-59
2021/11/17 03:59:29;;;;;;;24.05;12.98;;;5.20;99.90;;;;;;5081902;28;20032;-55
2021/11/17 04:02:14;;;;;;;27.20;13.85;;;5.20;99.90;;;;;;5063231;28;20040;-58
2021/11/17 04:05:18;;;;;;;32.85;14.90;;;5.20;99.90;;;;;;5088719;28;20119;-56
2021/11/17 04:07:46;;;;;;;25.47;13.53;;;5.20;99.90;;;;;;5029099;28;20045;-58
2021/11/17 04:10:12;;;;;;;23.20;11.85;;;5.20;99.90;;;;;;5029268;28;20048;-58
2021/11/17 04:13:08;;;;;;;28.48;12.95;;;5.20;99.90;;;;;;5054247;28;20448;-54
2021/11/17 04:15:51;;;;;;;28.13;13.55;;;5.20;99.90;;;;;;5081754;28;20142;-56
2021/11/17 04:18:47;;;;;;;28.92;13.80;;;5.10;99.90;;;;;;5083440;28;20555;-60
2021/11/17 04:21:40;;;;;;;29.15;13.35;;;5.10;99.90;;;;;;5085737;28;20549;-55
2021/11/17 04:24:26;;;;;;;31.42;15.63;;;5.10;99.90;;;;;;5078330;28;20500;-53
2021/11/17 04:27:10;;;;;;;31.55;14.73;;;5.20;99.90;;;;;;5081312;28;20551;-60
2021/11/17 04:29:42;;;;;;;33.67;14.05;;;5.10;99.90;;;;;;5084788;28;20089;-56
2021/11/17 04:32:17;;;;;;;34.97;15.38;;;5.10;99.90;;;;;;5083574;28;20493;-56
2021/11/17 04:35:12;;;;;;;31.23;15.35;;;5.10;99.90;;;;;;5086766;28;20028;-57
2021/11/17 04:37:44;;;;;;;29.92;13.90;;;5.10;99.90;;;;;;5086617;28;20111;-55
2021/11/17 04:40:31;;;;;;;33.20;16.42;;;5.10;99.90;;;;;;5088009;28;20453;-55
2021/11/17 04:43:05;;;;;;;42.20;16.58;;;5.20;99.90;;;;;;5089073;28;20035;-53
2021/11/17 04:45:39;;;;;;;33.65;16.08;;;5.10;99.90;;;;;;5086184;28;20081;-56
2021/11/17 04:48:08;;;;;;;35.65;15.70;;;5.20;99.90;;;;;;5087178;28;20020;-56
2021/11/17 04:50:49;;;;;;;39.08;16.05;;;5.20;99.90;;;;;;5078632;28;20103;-54
2021/11/17 04:53:26;;;;;;;33.63;15.20;;;5.20;99.90;;;;;;5083342;28;20615;-53
2021/11/17 04:56:10;;;;;;;31.73;15.13;;;5.20;99.90;;;;;;5086326;28;20067;-58
2021/11/17 04:58:44;;;;;;;30.38;15.20;;;5.20;99.90;;;;;;5087733;28;20103;-56
2021/11/17 05:01:22;;;;;;;35.08;15.93;;;5.20;99.90;;;;;;5083896;28;20545;-54
2021/11/17 05:04:06;;;;;;;32.38;14.70;;;5.20;99.90;;;;;;5064400;28;20071;-59
2021/11/17 05:06:41;;;;;;;31.42;15.52;;;5.20;99.90;;;;;;5083921;28;20737;-58
2021/11/17 05:09:10;;;;;;;32.83;14.70;;;5.20;99.90;;;;;;5088008;28;20123;-57
2021/11/17 05:11:47;;;;;;;34.83;14.77;;;5.20;99.90;;;;;;5085333;28;20381;-59
2021/11/17 05:14:12;;;;;;;34.67;14.05;;;5.20;99.90;;;;;;5083166;28;20085;-58
2021/11/17 05:16:56;;;;;;;31.20;14.63;;;5.20;99.90;;;;;;5078885;28;20039;-57
2021/11/17 05:19:39;;;;;;;35.47;15.88;;;5.10;99.90;;;;;;5079622;28;20877;-60
2021/11/17 05:22:17;;;;;;;31.92;15.25;;;5.20;99.90;;;;;;5088445;28;20544;-58
2021/11/17 05:25:17;;;;;;;33.63;16.50;;;5.20;99.90;;;;;;5082169;28;20052;-60
2021/11/17 05:28:04;;;;;;;42.60;16.80;;;5.20;99.90;;;;;;5076599;28;20059;-60
2021/11/17 05:31:18;;;;;;;36.08;16.00;;;5.10;99.90;;;;;;5082373;28;20357;-59
2021/11/17 05:33:53;;;;;;;36.42;15.80;;;5.10;99.90;;;;;;5085729;28;20109;-58
2021/11/17 05:36:43;;;;;;;42.83;18.25;;;5.10;99.90;;;;;;5089699;28;20073;-57
2021/11/17 05:39:53;;;;;;;39.13;16.33;;;5.10;99.90;;;;;;5084077;28;20396;-58
2021/11/17 05:42:49;;;;;;;34.03;16.15;;;5.10;99.90;;;;;;5067310;28;20089;-56
2021/11/17 05:45:36;;;;;;;36.08;16.65;;;5.10;99.90;;;;;;5083844;28;20027;-55
2021/11/17 05:48:20;;;;;;;36.08;15.75;;;5.10;99.90;;;;;;5082120;28;20024;-56
2021/11/17 05:50:55;;;;;;;40.50;18.23;;;5.10;99.90;;;;;;5080585;28;20404;-57
2021/11/17 05:53:26;;;;;;;38.67;15.88;;;5.10;99.90;;;;;;5083126;28;20032;-56
2021/11/17 05:56:25;;;;;;;43.15;18.10;;;5.10;99.90;;;;;;5079989;28;20036;-54
2021/11/17 05:59:14;;;;;;;34.20;16.70;;;5.20;99.90;;;;;;5085742;28;20085;-56
2021/11/17 06:02:14;;;;;;;38.90;16.13;;;5.20;99.90;;;;;;5087207;28;20531;-54
2021/11/17 06:04:39;;;;;;;40.97;17.63;;;5.20;99.90;;;;;;5069027;28;20032;-56
2021/11/17 06:07:05;;;;;;;37.63;17.05;;;5.20;99.90;;;;;;5083928;28;20038;-55
2021/11/17 06:09:30;;;;;;;56.28;21.83;;;5.20;99.90;;;;;;5084626;28;20377;-54
2021/11/17 06:11:59;;;;;;;48.65;21.95;;;5.20;99.90;;;;;;5087434;28;20016;-61
2021/11/17 06:14:29;;;;;;;34.80;16.50;;;5.20;99.90;;;;;;5080933;28;20127;-53
2021/11/17 06:16:58;;;;;;;36.92;16.63;;;5.20;99.90;;;;;;5083472;28;20488;-57
2021/11/17 06:19:27;;;;;;;36.97;16.85;;;5.20;99.90;;;;;;5081810;28;20549;-55
2021/11/17 06:21:54;;;;;;;34.17;16.55;;;5.20;99.90;;;;;;5087316;28;20047;-56
2021/11/17 06:24:23;;;;;;;38.80;15.88;;;5.30;99.90;;;;;;5082368;28;20020;-57
2021/11/17 06:26:50;;;;;;;40.70;17.33;;;5.30;99.90;;;;;;5084205;28;20143;-57
2021/11/17 06:29:38;;;;;;;32.00;15.18;;;5.20;99.90;;;;;;5078302;28;20115;-55
2021/11/17 06:32:05;;;;;;;41.90;17.23;;;5.30;99.90;;;;;;5081380;28;20054;-54
2021/11/17 06:34:33;;;;;;;35.70;16.48;;;5.30;99.90;;;;;;5072487;28;20043;-58
2021/11/17 06:37:01;;;;;;;42.08;16.75;;;5.20;99.90;;;;;;5085203;28;20023;-59
2021/11/17 06:39:27;;;;;;;42.03;18.48;;;5.20;99.90;;;;;;5086245;28;20070;-57
2021/11/17 06:41:54;;;;;;;41.28;18.65;;;5.20;99.90;;;;;;5083246;28;20048;-57
2021/11/17 06:44:21;;;;;;;40.17;17.23;;;5.20;99.90;;;;;;5086728;28;20027;-57
2021/11/17 06:46:46;;;;;;;42.63;17.90;;;5.20;99.90;;;;;;5077509;28;20095;-58
2021/11/17 06:49:12;;;;;;;41.33;18.30;;;5.30;99.90;;;;;;5083158;28;20103;-55
2021/11/17 06:51:38;;;;;;;39.13;17.60;;;5.30;99.90;;;;;;5086806;28;20028;-59
2021/11/17 06:54:03;;;;;;;39.50;17.00;;;5.20;99.90;;;;;;5065123;28;20039;-59
2021/11/17 06:56:29;;;;;;;47.60;16.63;;;5.30;99.90;;;;;;5086320;28;20044;-58
2021/11/17 06:58:55;;;;;;;41.40;17.60;;;5.30;99.90;;;;;;5087049;28;20019;-56
2021/11/17 07:01:21;;;;;;;39.67;16.25;;;5.20;99.90;;;;;;5076106;28;20033;-58
2021/11/17 07:03:47;;;;;;;44.63;18.67;;;5.30;99.90;;;;;;5063979;28;20039;-57
2021/11/17 07:06:12;;;;;;;44.35;17.60;;;5.20;99.90;;;;;;5084492;28;20025;-58
2021/11/17 07:08:39;;;;;;;44.78;19.33;;;5.20;99.90;;;;;;5082295;28;20435;-58
2021/11/17 07:11:05;;;;;;;39.80;15.35;;;5.20;99.90;;;;;;5083730;28;20073;-56
2021/11/17 07:13:30;;;;;;;42.88;17.77;;;5.30;99.90;;;;;;5080218;28;20020;-56
2021/11/17 07:15:56;;;;;;;32.78;15.48;;;5.20;99.90;;;;;;5074482;28;20021;-57
2021/11/17 07:18:21;;;;;;;34.05;15.55;;;5.20;99.90;;;;;;5085887;28;20097;-57
2021/11/17 07:20:47;;;;;;;40.97;17.92;;;5.20;99.90;;;;;;5077720;28;20017;-56
2021/11/17 07:23:15;;;;;;;41.97;16.20;;;5.30;99.90;;;;;;5080980;28;20024;-57
2021/11/17 07:25:41;;;;;;;33.33;16.08;;;5.30;99.90;;;;;;5084338;28;20042;-52
2021/11/17 07:28:07;;;;;;;35.03;15.18;;;5.30;99.90;;;;;;5078668;28;20032;-54
2021/11/17 07:30:36;;;;;;;31.52;15.00;;;5.40;99.90;;;;;;5075273;28;20034;-53
2021/11/17 07:33:03;;;;;;;28.75;14.73;;;5.60;99.90;;;;;;5064385;28;20032;-57
2021/11/17 07:35:31;;;;;;;28.08;13.68;;;5.70;99.90;;;;;;5085646;28;20046;-57
2021/11/17 07:38:03;;;;;;;32.40;14.45;;;5.80;99.90;;;;;;5085945;28;20016;-57
2021/11/17 07:40:35;;;;;;;27.40;14.32;;;5.90;99.90;;;;;;5081012;28;20024;-56
2021/11/17 07:43:02;;;;;;;30.52;14.77;;;5.90;99.90;;;;;;5079626;28;20426;-58
2021/11/17 07:45:28;;;;;;;31.92;16.83;;;5.90;99.90;;;;;;5086124;28;20032;-59
2021/11/17 07:47:53;;;;;;;33.83;16.35;;;5.90;99.90;;;;;;5086242;28;20100;-56
2021/11/17 07:50:20;;;;;;;31.48;17.40;;;5.90;99.90;;;;;;5088023;28;20035;-55
2021/11/17 07:52:45;;;;;;;31.52;15.43;;;5.80;99.90;;;;;;5087490;28;20041;-54
2021/11/17 07:55:13;;;;;;;31.15;16.67;;;5.80;99.90;;;;;;5086263;28;20028;-56
2021/11/17 07:57:41;;;;;;;29.40;15.63;;;5.80;99.90;;;;;;5089274;28;20032;-57
2021/11/17 08:00:11;;;;;;;27.40;14.52;;;6.00;99.90;;;;;;5087211;28;20404;-56
2021/11/17 08:02:37;;;;;;;36.88;16.63;;;6.00;99.90;;;;;;5083749;28;20093;-55
2021/11/17 08:05:03;;;;;;;29.25;14.75;;;6.00;99.90;;;;;;5070817;28;20063;-55
2021/11/17 08:07:30;;;;;;;30.42;14.63;;;5.90;99.90;;;;;;5089452;28;20024;-57
2021/11/17 08:09:56;;;;;;;31.33;16.15;;;6.00;99.90;;;;;;5088043;28;20107;-55
2021/11/17 08:12:21;;;;;;;44.03;23.20;;;6.10;99.90;;;;;;5084058;28;20541;-56
2021/11/17 08:14:48;;;;;;;28.55;15.02;;;6.20;99.90;;;;;;5085082;28;20036;-59
2021/11/17 08:17:14;;;;;;;32.35;17.20;;;6.30;99.90;;;;;;5088668;28;20027;-59
2021/11/17 08:19:40;;;;;;;41.10;24.58;;;6.30;99.90;;;;;;5088006;28;20027;-56
2021/11/17 08:22:07;;;;;;;26.77;16.50;;;6.40;99.90;;;;;;5081085;28;20035;-51
2021/11/17 08:24:37;;;;;;;24.15;14.63;;;6.50;99.90;;;;;;5079345;28;20023;-56
2021/11/17 08:27:04;;;;;;;22.80;13.85;;;6.50;99.90;;;;;;5080204;28;20165;-56
2021/11/17 08:29:29;;;;;;;29.25;14.70;;;6.60;99.90;;;;;;5078121;28;20093;-57
2021/11/17 08:31:55;;;;;;;29.48;14.32;;;6.70;99.90;;;;;;5086813;28;20477;-55
2021/11/17 08:34:21;;;;;;;24.67;14.50;;;6.80;99.90;;;;;;5078671;28;20428;-58
2021/11/17 08:36:46;;;;;;;25.05;14.63;;;6.90;99.90;;;;;;5086423;28;20024;-59
2021/11/17 08:39:16;;;;;;;26.10;14.10;;;6.80;99.90;;;;;;5087447;28;20055;-55
2021/11/17 08:41:42;;;;;;;22.17;12.65;;;6.80;99.90;;;;;;5079090;28;20074;-57
2021/11/17 08:44:08;;;;;;;23.70;12.07;;;6.70;99.90;;;;;;5085020;28;20315;-53
2021/11/17 08:46:33;;;;;;;23.77;12.45;;;6.70;99.90;;;;;;5086372;28;20039;-58
2021/11/17 08:49:00;;;;;;;28.17;14.80;;;6.70;99.90;;;;;;5083744;28;20035;-58
2021/11/17 08:51:30;;;;;;;25.83;14.98;;;6.70;99.90;;;;;;5087210;28;20361;-54
2021/11/17 08:53:59;;;;;;;27.15;13.10;;;6.80;99.90;;;;;;5082037;28;20016;-56
2021/11/17 08:56:25;;;;;;;22.15;12.32;;;6.90;99.90;;;;;;5083177;28;20024;-55
2021/11/17 08:58:51;;;;;;;22.83;13.23;;;7.10;99.90;;;;;;5080979;28;20016;-55
2021/11/17 09:01:17;;;;;;;21.42;12.85;;;7.20;99.90;;;;;;5085150;28;20107;-57
2021/11/17 09:03:42;;;;;;;19.95;12.70;;;7.40;99.90;;;;;;5054861;28;20028;-57
2021/11/17 09:06:12;;;;;;;21.83;11.80;;;7.50;99.90;;;;;;5076126;28;20031;-54
2021/11/17 09:08:38;;;;;;;21.10;12.25;;;7.60;99.90;;;;;;5079024;28;20028;-54
2021/11/17 09:11:08;;;;;;;20.80;12.85;;;7.60;99.90;;;;;;5077778;28;20454;-58
2021/11/17 09:13:34;;;;;;;23.60;13.68;;;7.60;99.90;;;;;;5083572;28;20023;-58
2021/11/17 09:16:01;;;;;;;20.80;11.82;;;7.70;99.90;;;;;;5078230;28;20105;-57
2021/11/17 09:18:30;;;;;;;23.45;13.63;;;7.90;99.90;;;;;;5080196;28;21914;-57
2021/11/17 09:20:58;;;;;;;20.90;12.05;;;7.90;99.90;;;;;;5085509;28;20523;-55
2021/11/17 09:23:26;;;;;;;30.92;17.02;;;7.80;99.90;;;;;;5087884;28;20020;-60
2021/11/17 09:25:53;;;;;;;21.45;11.80;;;7.80;99.90;;;;;;5085583;28;20020;-57
2021/11/17 09:28:20;;;;;;;29.42;16.95;;;7.80;99.90;;;;;;5085046;28;20034;-57
2021/11/17 09:30:47;;;;;;;26.00;14.00;;;7.80;99.90;;;;;;5083545;28;20555;-58
2021/11/17 09:33:14;;;;;;;19.20;10.95;;;7.60;99.90;;;;;;5082453;28;20048;-58
2021/11/17 09:35:44;;;;;;;17.10;10.55;;;7.50;99.90;;;;;;5084839;28;20392;-58
2021/11/17 09:38:12;;;;;;;18.77;11.10;;;7.60;99.90;;;;;;5083777;28;20400;-54
2021/11/17 09:40:39;;;;;;;28.05;15.52;;;7.60;99.90;;;;;;5084188;28;20039;-55
2021/11/17 09:43:09;;;;;;;17.85;11.05;;;7.70;99.90;;;;;;5082646;28;20103;-57
2021/11/17 09:45:38;;;;;;;20.05;11.45;;;7.60;99.90;;;;;;5084944;28;20032;-57
2021/11/17 09:48:04;;;;;;;17.35;11.40;;;7.60;99.90;;;;;;5082888;28;20024;-60
2021/11/17 09:50:59;;;;;;;22.98;14.15;;;7.70;99.90;;;;;;5083787;28;20542;-57
2021/11/17 09:53:25;;;;;;;;;;;7.80;99.90;;;;;;5077667;28;20048;-59
2021/11/17 09:56:13;;;;;;;17.77;11.82;;;7.80;99.90;;;;;;5077622;28;19961;-54
2021/11/17 09:58:53;;;;;;;15.30;9.25;;;7.70;99.90;;;;;;5066790;28;20051;-59
2021/11/17 10:01:22;;;;;;;15.27;9.23;;;7.80;99.90;;;;;;5079252;28;20124;-56
2021/11/17 10:04:23;;;;;;;17.02;10.07;;;7.70;99.90;;;;;;5067929;28;20078;-59
2021/11/17 10:13:08;;;;;;;14.68;7.75;;;7.60;99.90;;;;;;5083012;28;20078;-59
2021/11/17 10:15:37;;;;;;;15.70;9.00;;;7.60;99.90;;;;;;5084129;28;20035;-56
2021/11/17 10:18:18;;;;;;;14.98;8.52;;;7.40;99.90;;;;;;5085768;28;20111;-57
2021/11/17 10:20:57;;;;;;;14.95;7.70;;;7.40;99.90;;;;;;5083442;28;20024;-57
2021/11/17 10:24:02;;;;;;;24.90;15.25;;;7.40;99.90;;;;;;5076487;28;20118;-55
2021/11/17 10:26:28;;;;;;;32.30;20.67;;;7.50;99.90;;;;;;5086225;28;20020;-55
2021/11/17 10:28:59;;;;;;;18.50;9.70;;;7.50;99.90;;;;;;5079828;28;20063;-60
2021/11/17 10:31:47;;;;;;;17.63;9.25;;;7.50;99.90;;;;;;5082362;28;20032;-58
2021/11/17 10:34:28;;;;;;;16.45;8.38;;;7.50;99.90;;;;;;5077954;28;20099;-57
2021/11/17 10:37:22;;;;;;;18.35;8.38;;;7.60;99.90;;;;;;5088147;28;20028;-58
2021/11/17 10:39:49;;;;;;;14.32;8.48;;;7.60;99.90;;;;;;5082128;28;20081;-57
2021/11/17 10:42:14;;;;;;;15.73;8.20;;;7.50;99.90;;;;;;5075875;28;20032;-54
2021/11/17 10:44:43;;;;;;;13.88;8.57;;;7.50;99.90;;;;;;5086098;28;20029;-56
2021/11/17 10:47:36;;;;;;;15.63;7.93;;;7.50;99.90;;;;;;5075409;28;20599;-59
2021/11/17 10:50:11;;;;;;;16.27;8.50;;;7.60;99.90;;;;;;5072737;28;20216;-58
2021/11/17 10:53:03;;;;;;;20.15;9.10;;;7.60;99.90;;;;;;5081550;28;20480;-54
2021/11/17 10:55:42;;;;;;;15.25;8.82;;;7.50;99.90;;;;;;5078355;28;20043;-59
2021/11/17 10:58:12;;;;;;;17.48;8.77;;;7.50;99.90;;;;;;5060907;28;20082;-54
2021/11/17 11:00:41;;;;;;;12.25;8.20;;;7.40;99.90;;;;;;5084242;28;20036;-58
2021/11/17 11:03:08;;;;;;;14.10;8.70;;;7.50;99.90;;;;;;5082821;28;20024;-60
2021/11/17 11:05:39;;;;;;;15.43;8.50;;;7.50;99.90;;;;;;5063455;28;20071;-59
2021/11/17 11:08:35;;;;;;;25.30;9.70;;;7.60;99.90;;;;;;5081527;28;20020;-57
2021/11/17 11:11:04;;;;;;;15.13;8.75;;;7.60;99.90;;;;;;5074188;28;20028;-59
2021/11/17 11:13:44;;;;;;;16.70;8.75;;;7.60;99.90;;;;;;5085463;28;20032;-60
2021/11/17 11:16:40;;;;;;;21.52;12.27;;;7.70;99.90;;;;;;5079248;28;20543;-53
2021/11/17 11:19:09;;;;;;;17.05;9.23;;;7.60;99.90;;;;;;5084842;28;20038;-57
2021/11/17 11:21:40;;;;;;;17.13;9.63;;;7.60;99.90;;;;;;5085991;28;20062;-60
2021/11/17 11:24:12;;;;;;;31.30;16.83;;;7.60;99.90;;;;;;5085813;28;20392;-57
2021/11/17 11:27:20;;;;;;;13.68;8.45;;;7.50;99.90;;;;;;5082630;28;20032;-57
2021/11/17 11:29:50;;;;;;;32.22;15.25;;;7.40;99.90;;;;;;4997229;28;20037;-58
2021/11/17 11:32:19;;;;;;;18.52;10.45;;;7.40;99.90;;;;;;4994892;28;20141;-59
2021/11/17 11:34:46;;;;;;;37.45;21.80;;;7.40;99.90;;;;;;5046636;28;20036;-57
2021/11/17 11:37:24;;;;;;;19.88;10.88;;;7.40;99.90;;;;;;5090325;28;20566;-58
2021/11/17 11:39:57;;;;;;;15.40;8.80;;;7.40;99.90;;;;;;5078443;28;20048;-59
2021/11/17 11:42:41;;;;;;;29.08;14.32;;;7.40;99.90;;;;;;5087329;28;20152;-58
2021/11/17 11:45:09;;;;;;;24.17;11.65;;;7.40;99.90;;;;;;5078945;28;20028;-59
2021/11/17 11:47:50;;;;;;;22.90;10.75;;;7.40;99.90;;;;;;5079104;28;20028;-57
2021/11/17 11:50:35;;;;;;;24.35;13.95;;;7.40;99.90;;;;;;5084331;28;20028;-58
2021/11/17 11:53:03;;;;;;;;;;;7.30;99.90;;;;;;5085818;28;20059;-59
2021/11/17 11:55:56;;;;;;;27.60;14.73;;;7.30;99.90;;;;;;5087815;28;19940;-57
2021/11/17 11:58:23;;;;;;;17.35;9.30;;;7.30;99.90;;;;;;5089650;28;20125;-57
2021/11/17 12:01:05;;;;;;;15.68;8.52;;;7.20;99.90;;;;;;5083988;28;20024;-59
2021/11/17 12:03:35;;;;;;;19.08;9.65;;;7.30;99.90;;;;;;5082553;28;20035;-59
2021/11/17 12:06:09;;;;;;;16.95;9.40;;;7.20;99.90;;;;;;5073348;28;20036;-58
2021/11/17 12:08:49;;;;;;;20.17;8.88;;;7.20;99.90;;;;;;5091707;28;20031;-61
2021/11/17 12:11:21;;;;;;;18.35;10.68;;;7.20;99.90;;;;;;5083791;28;20076;-59
2021/11/17 12:14:12;;;;;;;31.95;17.42;;;7.30;99.90;;;;;;5081904;28;20070;-59
2021/11/17 12:16:41;;;;;;;20.55;10.05;;;7.30;99.90;;;;;;5081625;28;20416;-57
2021/11/17 12:19:27;;;;;;;18.17;10.07;;;7.30;99.90;;;;;;5086105;28;20039;-56
2021/11/17 12:22:13;;;;;;;14.90;8.93;;;7.30;99.90;;;;;;5091222;28;20060;-58
2021/11/17 12:24:50;;;;;;;18.75;8.80;;;7.30;99.90;;;;;;5084784;28;20023;-58
2021/11/17 12:27:17;;;;;;;17.35;9.65;;;7.30;99.90;;;;;;5085656;28;20031;-57
2021/11/17 12:29:52;;;;;;;17.33;9.85;;;7.40;99.90;;;;;;5075460;28;20135;-57
2021/11/17 12:32:39;;;;;;;15.95;9.40;;;7.40;99.90;;;;;;5082489;28;20036;-58
2021/11/17 12:35:05;;;;;;;15.20;9.75;;;7.50;99.90;;;;;;5088990;28;20496;-57
2021/11/17 12:37:46;;;;;;;18.42;9.02;;;7.50;99.90;;;;;;5082319;28;20071;-58
2021/11/17 12:40:34;;;;;;;18.38;9.55;;;7.50;99.90;;;;;;5084255;28;20039;-50
2021/11/17 12:43:04;;;;;;;15.75;9.50;;;7.60;99.90;;;;;;5060888;28;20706;-53
2021/11/17 12:45:46;;;;;;;24.02;9.25;;;7.60;99.90;;;;;;5087345;28;20111;-57
2021/11/17 12:48:32;;;;;;;15.68;8.95;;;7.60;99.90;;;;;;5070512;28;20020;-51
2021/11/17 12:51:11;;;;;;;16.50;8.88;;;7.60;99.90;;;;;;5084934;28;20020;-57
2021/11/17 12:53:41;;;;;;;18.38;8.30;;;7.60;99.90;;;;;;5087592;28;20030;-58
2021/11/17 12:56:12;;;;;;;16.88;8.48;;;7.60;99.90;;;;;;5078542;28;20058;-59
2021/11/17 12:59:01;;;;;;;15.32;8.07;;;7.60;99.90;;;;;;5088169;28;20036;-56
2021/11/17 13:01:36;;;;;;;18.83;9.82;;;7.60;99.90;;;;;;5083150;28;20051;-56
2021/11/17 13:04:15;;;;;;;15.00;8.50;;;7.50;99.90;;;;;;5085211;28;20091;-58
2021/11/17 13:06:41;;;;;;;15.93;8.35;;;7.50;99.90;;;;;;5059228;28;20412;-55
2021/11/17 13:09:15;;;;;;;22.58;9.80;;;7.50;99.90;;;;;;5087433;28;20112;-54
2021/11/17 13:11:51;;;;;;;14.82;9.32;;;7.50;99.90;;;;;;5081558;28;20095;-57
2021/11/17 13:14:37;;;;;;;15.95;8.85;;;7.60;99.90;;;;;;5081036;28;20077;-57
2021/11/17 13:17:17;;;;;;;17.67;10.30;;;7.50;99.90;;;;;;5081259;28;20035;-55
2021/11/17 13:19:51;;;;;;;16.67;9.77;;;7.50;99.90;;;;;;5083203;28;20028;-59
2021/11/17 13:22:29;;;;;;;19.45;9.95;;;7.50;99.90;;;;;;5065573;28;20020;-56
2021/11/17 13:25:10;;;;;;;22.67;10.52;;;7.50;99.90;;;;;;5086536;28;20084;-59
2021/11/17 13:27:40;;;;;;;19.90;10.05;;;7.60;99.90;;;;;;5089833;28;20070;-58
2021/11/17 13:30:36;;;;;;;17.42;10.05;;;7.60;99.90;;;;;;5083669;28;20122;-55
2021/11/17 13:33:21;;;;;;;27.90;10.20;;;7.60;99.90;;;;;;5085239;28;20035;-58
2021/11/17 13:36:00;;;;;;;27.83;12.10;;;7.60;99.90;;;;;;5084526;28;20412;-54
2021/11/17 13:38:26;;;;;;;49.17;23.75;;;7.60;99.90;;;;;;5087492;28;20031;-57
2021/11/17 13:40:57;;;;;;;31.35;16.75;;;7.60;99.90;;;;;;5074947;28;20115;-57
2021/11/17 13:43:24;;;;;;;33.75;17.17;;;7.60;99.90;;;;;;5089028;28;20023;-57
2021/11/17 13:45:53;;;;;;;88.70;36.97;;;7.60;99.90;;;;;;5083509;28;20031;-56
2021/11/17 13:48:23;;;;;;;32.85;16.98;;;7.60;99.90;;;;;;5081561;28;20043;-57
2021/11/17 13:50:49;;;;;;;37.22;20.05;;;7.60;99.90;;;;;;5081690;28;20032;-56
2021/11/17 13:53:17;;;;;;;32.30;17.08;;;7.60;99.90;;;;;;5083362;28;20404;-57
2021/11/17 13:55:48;;;;;;;96.22;46.85;;;7.60;99.90;;;;;;5086168;28;20549;-56
2021/11/17 13:58:14;;;;;;;60.22;26.33;;;7.60;99.90;;;;;;5089910;28;20032;-55
2021/11/17 14:00:41;;;;;;;29.13;13.20;;;7.60;99.90;;;;;;5080912;28;20016;-57
2021/11/17 14:03:08;;;;;;;47.40;20.30;;;7.60;99.90;;;;;;5084191;28;20024;-57
2021/11/17 14:05:38;;;;;;;49.72;22.80;;;7.60;99.90;;;;;;5066602;28;20036;-55
2021/11/17 14:08:05;;;;;;;36.88;18.15;;;7.60;99.90;;;;;;5080916;28;20032;-54
2021/11/17 14:10:33;;;;;;;127.85;57.10;;;7.60;99.90;;;;;;5085951;28;20012;-54
2021/11/17 14:12:58;;;;;;;58.45;28.20;;;7.60;99.90;;;;;;5072082;28;20051;-53
2021/11/17 14:15:24;;;;;;;34.58;17.45;;;7.60;99.90;;;;;;5050707;28;20524;-55
2021/11/17 14:17:50;;;;;;;42.47;19.85;;;7.60;99.90;;;;;;5078813;28;20028;-54
2021/11/17 14:20:17;;;;;;;39.45;20.65;;;7.60;99.90;;;;;;5058611;28;20398;-56
2021/11/17 14:22:43;;;;;;;29.48;16.33;;;7.60;99.90;;;;;;5069174;28;20047;-51
2021/11/17 14:25:16;;;;;;;30.48;15.95;;;7.70;99.90;;;;;;5055616;28;20059;-55
2021/11/17 14:27:43;;;;;;;25.65;13.75;;;7.60;99.90;;;;;;5079733;28;20028;-52
2021/11/17 14:30:23;;;;;;;29.52;15.32;;;7.70;99.90;;;;;;5051009;28;20036;-55
2021/11/17 14:32:52;;;;;;;27.10;12.25;;;7.70;99.90;;;;;;5076014;28;20020;-55
2021/11/17 14:35:19;;;;;;;20.95;11.40;;;7.70;99.90;;;;;;5070248;28;20043;-53
2021/11/17 14:37:45;;;;;;;24.77;11.57;;;7.70;99.90;;;;;;5072948;28;20058;-57
2021/11/17 14:40:13;;;;;;;22.00;11.43;;;7.70;99.90;;;;;;5075722;28;20122;-52
2021/11/17 14:42:39;;;;;;;24.77;12.98;;;7.70;99.90;;;;;;5077068;28;20582;-58
2021/11/17 14:45:09;;;;;;;25.52;12.52;;;7.70;99.90;;;;;;5084580;28;20039;-54
2021/11/17 14:47:34;;;;;;;28.92;15.57;;;7.70;99.90;;;;;;5087932;28;20016;-54
2021/11/17 14:50:00;;;;;;;24.23;10.90;;;7.70;99.90;;;;;;5088284;28;20512;-56
2021/11/17 14:52:25;;;;;;;32.05;18.15;;;7.70;99.90;;;;;;5079692;28;20032;-56
2021/11/17 14:54:51;;;;;;;21.80;10.93;;;7.70;99.90;;;;;;5066562;28;20020;-54
2021/11/17 14:57:18;;;;;;;20.33;11.35;;;7.70;99.90;;;;;;5073122;28;20028;-59
2021/11/17 14:59:43;;;;;;;25.40;14.40;;;7.70;99.90;;;;;;5046759;28;20396;-57
2021/11/17 15:02:10;;;;;;;22.55;12.30;;;7.60;99.90;;;;;;5092779;28;20020;-55
2021/11/17 15:04:35;;;;;;;27.33;13.85;;;7.60;99.90;;;;;;5090288;28;20031;-57
2021/11/17 15:07:03;;;;;;;23.58;11.95;;;7.60;99.90;;;;;;5054663;28;20040;-54
2021/11/17 15:09:29;;;;;;;28.88;15.63;;;7.60;99.90;;;;;;5089844;28;20074;-56
2021/11/17 15:12:07;;;;;;;24.10;12.48;;;7.60;99.90;;;;;;5092794;28;20027;-57
2021/11/17 15:14:36;;;;;;;34.38;14.25;;;7.60;99.90;;;;;;5084734;28;20030;-55
2021/11/17 15:17:02;;;;;;;24.10;11.85;;;7.60;99.90;;;;;;5083557;28;20128;-56
2021/11/17 15:19:28;;;;;;;39.38;19.52;;;7.60;99.90;;;;;;5080602;28;20024;-56
2021/11/17 15:21:55;;;;;;;27.23;13.65;;;7.50;99.90;;;;;;5074630;28;20405;-57
2021/11/17 15:24:22;;;;;;;31.25;14.80;;;7.60;99.90;;;;;;5074701;28;20040;-57
2021/11/17 15:26:55;;;;;;;32.45;17.45;;;7.50;99.90;;;;;;5079063;28;20032;-55
2021/11/17 15:29:21;;;;;;;89.50;46.67;;;7.50;99.90;;;;;;5080379;28;20401;-55
2021/11/17 15:31:47;;;;;;;44.55;22.52;;;7.50;99.90;;;;;;5086634;28;20033;-60
2021/11/17 15:34:13;;;;;;;80.30;42.25;;;7.50;99.90;;;;;;5084359;28;20516;-50
2021/11/17 15:36:40;;;;;;;93.50;52.00;;;7.50;99.90;;;;;;5089285;28;20025;-55
2021/11/17 15:39:06;;;;;;;152.27;86.22;;;7.50;99.90;;;;;;5090784;28;20025;-57
2021/11/17 15:41:33;;;;;;;140.48;72.95;;;7.50;99.90;;;;;;5092382;28;20075;-57
2021/11/17 15:43:59;;;;;;;166.77;81.85;;;7.50;99.90;;;;;;5090901;28;20031;-55
2021/11/17 15:46:27;;;;;;;97.47;46.42;;;7.50;99.90;;;;;;5082863;28;20028;-56